sensor_id;sensor_type;location;lat;lon;timestamp;P1;durP1;ratioP1;P2;durP2;ratioP2
60372;SDS011;46216;52.220;5.134;2023-06-26T00:02:13;6.35;;;5.75;;
60372;SDS011;46216;52.220;5.134;2023-06-26T00:04:39;6.18;;;5.68;;
60372;SDS011;46216;52.220;5.134;2023-06-26T00:07:04;6.50;;;5.90;;
60372;SDS011;46216;52.220;5.134;2023-06-26T00:09:30;7.95;;;5.93;;
60372;SDS011;46216;52.220;5.134;2023-06-26T00:11:55;7.43;;;5.82;;
60372;SDS011;46216;52.220;5.134;2023-06-26T00:14:21;6.90;;;6.07;;
60372;SDS011;46216;52.220;5.134;2023-06-26T00:16:46;6.28;;;5.70;;
60372;SDS011;46216;52.220;5.134;2023-06-26T00:19:14;7.95;;;7.15;;
60372;SDS011;46216;52.220;5.134;2023-06-26T00:21:40;9.13;;;6.55;;
60372;SDS011;46216;52.220;5.134;2023-06-26T00:24:05;7.18;;;6.47;;
60372;SDS011;46216;52.220;5.134;2023-06-26T00:26:31;7.25;;;6.50;;
60372;SDS011;46216;52.220;5.134;2023-06-26T00:28:56;7.10;;;6.45;;
60372;SDS011;46216;52.220;5.134;2023-06-26T00:31:22;6.90;;;6.30;;
60372;SDS011;46216;52.220;5.134;2023-06-26T00:33:47;6.75;;;6.00;;
60372;SDS011;46216;52.220;5.134;2023-06-26T00:36:12;7.07;;;5.93;;
60372;SDS011;46216;52.220;5.134;2023-06-26T00:38:38;6.65;;;6.05;;
60372;SDS011;46216;52.220;5.134;2023-06-26T00:41:03;7.38;;;6.30;;
60372;SDS011;46216;52.220;5.134;2023-06-26T00:43:30;6.65;;;5.53;;
60372;SDS011;46216;52.220;5.134;2023-06-26T00:45:55;6.68;;;6.07;;
60372;SDS011;46216;52.220;5.134;2023-06-26T00:48:20;7.88;;;6.47;;
60372;SDS011;46216;52.220;5.134;2023-06-26T00:50:46;7.38;;;6.68;;
60372;SDS011;46216;52.220;5.134;2023-06-26T00:53:12;6.90;;;6.30;;
60372;SDS011;46216;52.220;5.134;2023-06-26T00:55:37;7.22;;;6.53;;
60372;SDS011;46216;52.220;5.134;2023-06-26T00:58:03;7.43;;;6.40;;
60372;SDS011;46216;52.220;5.134;2023-06-26T01:00:28;7.55;;;6.28;;
60372;SDS011;46216;52.220;5.134;2023-06-26T01:02:54;9.43;;;6.75;;
60372;SDS011;46216;52.220;5.134;2023-06-26T01:05:23;7.05;;;6.30;;
60372;SDS011;46216;52.220;5.134;2023-06-26T01:07:49;7.40;;;5.90;;
60372;SDS011;46216;52.220;5.134;2023-06-26T01:10:16;6.78;;;6.03;;
60372;SDS011;46216;52.220;5.134;2023-06-26T01:12:42;7.53;;;6.30;;
60372;SDS011;46216;52.220;5.134;2023-06-26T01:15:08;7.25;;;5.82;;
60372;SDS011;46216;52.220;5.134;2023-06-26T01:17:33;9.38;;;5.85;;
60372;SDS011;46216;52.220;5.134;2023-06-26T01:20:00;7.57;;;5.82;;
60372;SDS011;46216;52.220;5.134;2023-06-26T01:22:34;10.77;;;6.43;;
60372;SDS011;46216;52.220;5.134;2023-06-26T01:27:48;7.57;;;5.97;;
60372;SDS011;46216;52.220;5.134;2023-06-26T01:30:17;8.10;;;5.93;;
60372;SDS011;46216;52.220;5.134;2023-06-26T01:32:44;7.95;;;5.82;;
60372;SDS011;46216;52.220;5.134;2023-06-26T01:35:10;8.00;;;5.15;;
60372;SDS011;46216;52.220;5.134;2023-06-26T01:37:36;6.97;;;4.57;;
60372;SDS011;46216;52.220;5.134;2023-06-26T01:40:01;6.38;;;4.93;;
60372;SDS011;46216;52.220;5.134;2023-06-26T01:42:30;6.47;;;4.90;;
60372;SDS011;46216;52.220;5.134;2023-06-26T01:44:55;6.78;;;4.80;;
60372;SDS011;46216;52.220;5.134;2023-06-26T01:47:22;7.60;;;4.80;;
60372;SDS011;46216;52.220;5.134;2023-06-26T01:55:28;6.88;;;4.45;;
60372;SDS011;46216;52.220;5.134;2023-06-26T01:58:01;7.10;;;5.15;;
60372;SDS011;46216;52.220;5.134;2023-06-26T02:00:26;8.68;;;4.50;;
60372;SDS011;46216;52.220;5.134;2023-06-26T02:02:53;9.20;;;4.57;;
60372;SDS011;46216;52.220;5.134;2023-06-26T02:05:18;7.25;;;4.45;;
60372;SDS011;46216;52.220;5.134;2023-06-26T02:07:49;8.25;;;4.72;;
60372;SDS011;46216;52.220;5.134;2023-06-26T02:10:14;6.72;;;4.70;;
60372;SDS011;46216;52.220;5.134;2023-06-26T02:12:40;7.32;;;4.32;;
60372;SDS011;46216;52.220;5.134;2023-06-26T02:15:06;8.65;;;4.40;;
60372;SDS011;46216;52.220;5.134;2023-06-26T02:17:32;6.10;;;4.25;;
60372;SDS011;46216;52.220;5.134;2023-06-26T02:19:57;14.05;;;4.80;;
60372;SDS011;46216;52.220;5.134;2023-06-26T02:22:22;9.63;;;4.72;;
60372;SDS011;46216;52.220;5.134;2023-06-26T02:24:48;7.47;;;4.70;;
60372;SDS011;46216;52.220;5.134;2023-06-26T02:27:13;7.97;;;4.55;;
60372;SDS011;46216;52.220;5.134;2023-06-26T02:29:39;9.77;;;4.97;;
60372;SDS011;46216;52.220;5.134;2023-06-26T02:32:05;8.15;;;4.30;;
60372;SDS011;46216;52.220;5.134;2023-06-26T02:34:31;7.95;;;4.78;;
60372;SDS011;46216;52.220;5.134;2023-06-26T02:36:56;9.43;;;4.70;;
60372;SDS011;46216;52.220;5.134;2023-06-26T02:39:23;8.65;;;5.28;;
60372;SDS011;46216;52.220;5.134;2023-06-26T02:41:49;8.50;;;4.68;;
60372;SDS011;46216;52.220;5.134;2023-06-26T02:44:14;8.85;;;4.88;;
60372;SDS011;46216;52.220;5.134;2023-06-26T02:46:40;7.68;;;4.72;;
60372;SDS011;46216;52.220;5.134;2023-06-26T02:49:05;8.90;;;4.93;;
60372;SDS011;46216;52.220;5.134;2023-06-26T02:51:32;11.32;;;5.38;;
60372;SDS011;46216;52.220;5.134;2023-06-26T02:53:58;11.57;;;5.63;;
60372;SDS011;46216;52.220;5.134;2023-06-26T02:56:23;14.52;;;5.60;;
60372;SDS011;46216;52.220;5.134;2023-06-26T02:58:49;12.18;;;5.40;;
60372;SDS011;46216;52.220;5.134;2023-06-26T03:01:14;11.65;;;5.30;;
60372;SDS011;46216;52.220;5.134;2023-06-26T03:03:40;12.85;;;5.18;;
60372;SDS011;46216;52.220;5.134;2023-06-26T03:06:06;14.95;;;5.45;;
60372;SDS011;46216;52.220;5.134;2023-06-26T03:08:32;16.17;;;5.82;;
60372;SDS011;46216;52.220;5.134;2023-06-26T03:10:58;15.15;;;5.85;;
60372;SDS011;46216;52.220;5.134;2023-06-26T03:13:24;13.77;;;5.60;;
60372;SDS011;46216;52.220;5.134;2023-06-26T03:15:49;14.70;;;5.60;;
60372;SDS011;46216;52.220;5.134;2023-06-26T03:18:14;15.00;;;6.15;;
60372;SDS011;46216;52.220;5.134;2023-06-26T03:20:40;14.18;;;5.68;;
60372;SDS011;46216;52.220;5.134;2023-06-26T03:23:05;13.80;;;5.75;;
60372;SDS011;46216;52.220;5.134;2023-06-26T03:25:31;13.13;;;5.75;;
60372;SDS011;46216;52.220;5.134;2023-06-26T03:27:56;15.75;;;5.55;;
60372;SDS011;46216;52.220;5.134;2023-06-26T03:30:22;14.48;;;6.47;;
60372;SDS011;46216;52.220;5.134;2023-06-26T03:32:47;13.27;;;5.97;;
60372;SDS011;46216;52.220;5.134;2023-06-26T03:35:12;14.65;;;5.80;;
60372;SDS011;46216;52.220;5.134;2023-06-26T03:37:38;12.30;;;5.97;;
60372;SDS011;46216;52.220;5.134;2023-06-26T03:40:03;15.13;;;6.32;;
60372;SDS011;46216;52.220;5.134;2023-06-26T03:42:29;12.65;;;5.57;;
60372;SDS011;46216;52.220;5.134;2023-06-26T03:44:55;13.82;;;5.90;;
60372;SDS011;46216;52.220;5.134;2023-06-26T03:47:20;16.23;;;5.90;;
60372;SDS011;46216;52.220;5.134;2023-06-26T03:49:46;15.85;;;6.10;;
60372;SDS011;46216;52.220;5.134;2023-06-26T03:52:11;17.20;;;6.05;;
60372;SDS011;46216;52.220;5.134;2023-06-26T03:54:36;16.35;;;5.53;;
60372;SDS011;46216;52.220;5.134;2023-06-26T03:57:02;15.10;;;5.82;;
60372;SDS011;46216;52.220;5.134;2023-06-26T03:59:27;14.15;;;5.50;;
60372;SDS011;46216;52.220;5.134;2023-06-26T04:01:53;13.75;;;6.03;;
60372;SDS011;46216;52.220;5.134;2023-06-26T04:04:18;13.80;;;5.55;;
60372;SDS011;46216;52.220;5.134;2023-06-26T04:06:43;14.63;;;5.82;;
60372;SDS011;46216;52.220;5.134;2023-06-26T04:09:09;14.27;;;5.55;;
60372;SDS011;46216;52.220;5.134;2023-06-26T04:11:34;9.13;;;4.80;;
60372;SDS011;46216;52.220;5.134;2023-06-26T04:13:59;10.43;;;4.70;;
60372;SDS011;46216;52.220;5.134;2023-06-26T04:16:25;11.05;;;5.07;;
60372;SDS011;46216;52.220;5.134;2023-06-26T04:18:51;13.82;;;5.03;;
60372;SDS011;46216;52.220;5.134;2023-06-26T04:21:17;11.77;;;5.13;;
60372;SDS011;46216;52.220;5.134;2023-06-26T04:23:43;10.43;;;4.70;;
60372;SDS011;46216;52.220;5.134;2023-06-26T04:26:08;13.13;;;5.10;;
60372;SDS011;46216;52.220;5.134;2023-06-26T04:28:34;12.75;;;4.82;;
60372;SDS011;46216;52.220;5.134;2023-06-26T04:31:00;9.52;;;4.53;;
60372;SDS011;46216;52.220;5.134;2023-06-26T04:33:26;9.50;;;4.20;;
60372;SDS011;46216;52.220;5.134;2023-06-26T04:35:52;9.05;;;4.38;;
60372;SDS011;46216;52.220;5.134;2023-06-26T04:38:18;8.57;;;4.45;;
60372;SDS011;46216;52.220;5.134;2023-06-26T04:40:44;8.18;;;4.35;;
60372;SDS011;46216;52.220;5.134;2023-06-26T04:43:10;10.43;;;4.30;;
60372;SDS011;46216;52.220;5.134;2023-06-26T04:45:35;6.40;;;3.70;;
60372;SDS011;46216;52.220;5.134;2023-06-26T04:48:01;8.38;;;3.88;;
60372;SDS011;46216;52.220;5.134;2023-06-26T04:50:27;8.40;;;4.03;;
60372;SDS011;46216;52.220;5.134;2023-06-26T04:52:54;7.57;;;3.50;;
60372;SDS011;46216;52.220;5.134;2023-06-26T04:55:19;5.90;;;3.40;;
60372;SDS011;46216;52.220;5.134;2023-06-26T04:57:46;7.38;;;3.42;;
60372;SDS011;46216;52.220;5.134;2023-06-26T05:00:12;7.03;;;3.40;;
60372;SDS011;46216;52.220;5.134;2023-06-26T05:02:38;12.85;;;3.70;;
60372;SDS011;46216;52.220;5.134;2023-06-26T05:05:03;5.90;;;3.10;;
60372;SDS011;46216;52.220;5.134;2023-06-26T05:07:29;4.57;;;3.10;;
60372;SDS011;46216;52.220;5.134;2023-06-26T05:09:54;5.15;;;3.13;;
60372;SDS011;46216;52.220;5.134;2023-06-26T05:12:20;5.75;;;3.33;;
60372;SDS011;46216;52.220;5.134;2023-06-26T05:14:45;5.65;;;3.13;;
60372;SDS011;46216;52.220;5.134;2023-06-26T05:17:13;4.68;;;3.10;;
60372;SDS011;46216;52.220;5.134;2023-06-26T05:19:38;5.85;;;3.25;;
60372;SDS011;46216;52.220;5.134;2023-06-26T05:22:04;3.88;;;2.63;;
60372;SDS011;46216;52.220;5.134;2023-06-26T05:24:33;5.20;;;2.90;;
60372;SDS011;46216;52.220;5.134;2023-06-26T05:27:03;4.53;;;2.83;;
60372;SDS011;46216;52.220;5.134;2023-06-26T05:29:30;8.50;;;3.17;;
60372;SDS011;46216;52.220;5.134;2023-06-26T05:31:56;6.60;;;3.08;;
60372;SDS011;46216;52.220;5.134;2023-06-26T05:34:22;5.43;;;3.00;;
60372;SDS011;46216;52.220;5.134;2023-06-26T05:36:50;5.05;;;2.97;;
60372;SDS011;46216;52.220;5.134;2023-06-26T05:39:16;4.50;;;3.00;;
60372;SDS011;46216;52.220;5.134;2023-06-26T05:41:45;6.70;;;3.28;;
60372;SDS011;46216;52.220;5.134;2023-06-26T05:44:11;5.00;;;2.60;;
60372;SDS011;46216;52.220;5.134;2023-06-26T05:46:36;5.22;;;2.70;;
60372;SDS011;46216;52.220;5.134;2023-06-26T05:49:02;3.83;;;2.63;;
60372;SDS011;46216;52.220;5.134;2023-06-26T05:51:27;6.05;;;2.95;;
60372;SDS011;46216;52.220;5.134;2023-06-26T05:53:53;5.47;;;3.17;;
60372;SDS011;46216;52.220;5.134;2023-06-26T05:56:19;8.57;;;2.70;;
60372;SDS011;46216;52.220;5.134;2023-06-26T05:58:45;6.90;;;2.72;;
60372;SDS011;46216;52.220;5.134;2023-06-26T06:01:11;5.40;;;2.50;;
60372;SDS011;46216;52.220;5.134;2023-06-26T06:03:36;5.38;;;2.67;;
60372;SDS011;46216;52.220;5.134;2023-06-26T06:06:02;5.28;;;2.60;;
60372;SDS011;46216;52.220;5.134;2023-06-26T06:08:28;4.65;;;2.53;;
60372;SDS011;46216;52.220;5.134;2023-06-26T06:10:54;6.18;;;2.63;;
60372;SDS011;46216;52.220;5.134;2023-06-26T06:13:19;3.65;;;2.35;;
60372;SDS011;46216;52.220;5.134;2023-06-26T06:15:44;4.93;;;2.72;;
60372;SDS011;46216;52.220;5.134;2023-06-26T06:18:10;4.22;;;2.50;;
60372;SDS011;46216;52.220;5.134;2023-06-26T06:20:35;4.53;;;2.50;;
60372;SDS011;46216;52.220;5.134;2023-06-26T06:23:01;7.88;;;2.53;;
60372;SDS011;46216;52.220;5.134;2023-06-26T06:25:26;3.30;;;2.40;;
60372;SDS011;46216;52.220;5.134;2023-06-26T06:27:52;5.15;;;2.60;;
60372;SDS011;46216;52.220;5.134;2023-06-26T06:30:17;5.40;;;2.78;;
60372;SDS011;46216;52.220;5.134;2023-06-26T06:32:43;5.25;;;2.60;;
60372;SDS011;46216;52.220;5.134;2023-06-26T06:35:08;3.90;;;2.50;;
60372;SDS011;46216;52.220;5.134;2023-06-26T06:37:37;5.07;;;2.75;;
60372;SDS011;46216;52.220;5.134;2023-06-26T06:40:04;5.60;;;2.88;;
60372;SDS011;46216;52.220;5.134;2023-06-26T06:42:31;4.70;;;3.10;;
60372;SDS011;46216;52.220;5.134;2023-06-26T06:44:57;8.60;;;3.60;;
60372;SDS011;46216;52.220;5.134;2023-06-26T06:47:22;5.30;;;3.30;;
60372;SDS011;46216;52.220;5.134;2023-06-26T06:49:48;5.72;;;3.13;;
60372;SDS011;46216;52.220;5.134;2023-06-26T06:52:13;4.65;;;3.17;;
60372;SDS011;46216;52.220;5.134;2023-06-26T06:54:56;5.07;;;3.00;;
60372;SDS011;46216;52.220;5.134;2023-06-26T06:57:26;6.47;;;3.50;;
60372;SDS011;46216;52.220;5.134;2023-06-26T06:59:53;6.72;;;3.03;;
60372;SDS011;46216;52.220;5.134;2023-06-26T07:02:18;7.00;;;2.97;;
60372;SDS011;46216;52.220;5.134;2023-06-26T07:04:43;7.50;;;3.20;;
60372;SDS011;46216;52.220;5.134;2023-06-26T07:07:09;5.30;;;3.08;;
60372;SDS011;46216;52.220;5.134;2023-06-26T07:09:35;6.43;;;2.80;;
60372;SDS011;46216;52.220;5.134;2023-06-26T07:12:01;4.97;;;3.13;;
60372;SDS011;46216;52.220;5.134;2023-06-26T07:14:27;5.60;;;2.85;;
60372;SDS011;46216;52.220;5.134;2023-06-26T07:16:53;6.63;;;3.10;;
60372;SDS011;46216;52.220;5.134;2023-06-26T07:19:18;4.28;;;2.63;;
60372;SDS011;46216;52.220;5.134;2023-06-26T07:21:44;6.90;;;2.92;;
60372;SDS011;46216;52.220;5.134;2023-06-26T07:24:11;5.57;;;2.90;;
60372;SDS011;46216;52.220;5.134;2023-06-26T07:26:36;6.70;;;2.88;;
60372;SDS011;46216;52.220;5.134;2023-06-26T07:29:02;6.75;;;3.08;;
60372;SDS011;46216;52.220;5.134;2023-06-26T07:31:27;6.18;;;2.70;;
60372;SDS011;46216;52.220;5.134;2023-06-26T07:33:53;4.93;;;2.50;;
60372;SDS011;46216;52.220;5.134;2023-06-26T07:36:18;8.25;;;2.67;;
60372;SDS011;46216;52.220;5.134;2023-06-26T07:38:43;7.20;;;2.70;;
60372;SDS011;46216;52.220;5.134;2023-06-26T07:41:09;7.88;;;2.65;;
60372;SDS011;46216;52.220;5.134;2023-06-26T07:43:34;6.13;;;2.55;;
60372;SDS011;46216;52.220;5.134;2023-06-26T07:46:00;10.65;;;2.45;;
60372;SDS011;46216;52.220;5.134;2023-06-26T07:48:25;5.93;;;2.35;;
60372;SDS011;46216;52.220;5.134;2023-06-26T07:50:51;7.85;;;2.50;;
60372;SDS011;46216;52.220;5.134;2023-06-26T07:53:16;6.80;;;2.25;;
60372;SDS011;46216;52.220;5.134;2023-06-26T07:55:42;3.70;;;2.20;;
60372;SDS011;46216;52.220;5.134;2023-06-26T07:58:08;4.45;;;2.40;;
60372;SDS011;46216;52.220;5.134;2023-06-26T08:00:34;5.13;;;2.17;;
60372;SDS011;46216;52.220;5.134;2023-06-26T08:02:59;7.03;;;2.38;;
60372;SDS011;46216;52.220;5.134;2023-06-26T08:05:24;5.82;;;2.28;;
60372;SDS011;46216;52.220;5.134;2023-06-26T08:07:50;5.15;;;2.28;;
60372;SDS011;46216;52.220;5.134;2023-06-26T08:10:15;6.80;;;2.53;;
60372;SDS011;46216;52.220;5.134;2023-06-26T08:12:41;4.65;;;2.00;;
60372;SDS011;46216;52.220;5.134;2023-06-26T08:15:10;6.50;;;1.75;;
60372;SDS011;46216;52.220;5.134;2023-06-26T08:17:39;5.50;;;2.20;;
60372;SDS011;46216;52.220;5.134;2023-06-26T08:20:04;4.53;;;1.98;;
60372;SDS011;46216;52.220;5.134;2023-06-26T08:22:33;7.90;;;2.00;;
60372;SDS011;46216;52.220;5.134;2023-06-26T08:24:58;8.55;;;2.08;;
60372;SDS011;46216;52.220;5.134;2023-06-26T08:27:23;7.63;;;2.72;;
60372;SDS011;46216;52.220;5.134;2023-06-26T08:29:49;7.68;;;2.10;;
60372;SDS011;46216;52.220;5.134;2023-06-26T08:32:14;6.95;;;2.10;;
60372;SDS011;46216;52.220;5.134;2023-06-26T08:34:40;6.72;;;2.40;;
60372;SDS011;46216;52.220;5.134;2023-06-26T08:37:05;6.03;;;2.20;;
60372;SDS011;46216;52.220;5.134;2023-06-26T08:39:30;5.25;;;1.98;;
60372;SDS011;46216;52.220;5.134;2023-06-26T08:41:56;5.55;;;2.10;;
60372;SDS011;46216;52.220;5.134;2023-06-26T08:44:21;5.00;;;2.00;;
60372;SDS011;46216;52.220;5.134;2023-06-26T08:46:50;8.02;;;2.30;;
60372;SDS011;46216;52.220;5.134;2023-06-26T08:52:24;4.20;;;2.00;;
60372;SDS011;46216;52.220;5.134;2023-06-26T08:54:56;5.35;;;2.17;;
60372;SDS011;46216;52.220;5.134;2023-06-26T08:57:23;6.25;;;2.42;;
60372;SDS011;46216;52.220;5.134;2023-06-26T08:59:51;6.97;;;1.90;;
60372;SDS011;46216;52.220;5.134;2023-06-26T09:02:17;5.13;;;1.83;;
60372;SDS011;46216;52.220;5.134;2023-06-26T09:04:42;4.82;;;2.35;;
60372;SDS011;46216;52.220;5.134;2023-06-26T09:07:08;7.55;;;2.28;;
60372;SDS011;46216;52.220;5.134;2023-06-26T09:09:34;2.75;;;1.77;;
60372;SDS011;46216;52.220;5.134;2023-06-26T09:12:00;6.05;;;1.90;;
60372;SDS011;46216;52.220;5.134;2023-06-26T09:14:28;5.18;;;1.95;;
60372;SDS011;46216;52.220;5.134;2023-06-26T09:16:54;5.43;;;1.80;;
60372;SDS011;46216;52.220;5.134;2023-06-26T09:19:19;7.40;;;1.90;;
60372;SDS011;46216;52.220;5.134;2023-06-26T09:21:45;5.05;;;2.00;;
60372;SDS011;46216;52.220;5.134;2023-06-26T09:24:14;4.35;;;1.90;;
60372;SDS011;46216;52.220;5.134;2023-06-26T09:26:41;4.60;;;1.98;;
60372;SDS011;46216;52.220;5.134;2023-06-26T09:29:06;4.80;;;1.77;;
60372;SDS011;46216;52.220;5.134;2023-06-26T09:31:32;6.28;;;2.17;;
60372;SDS011;46216;52.220;5.134;2023-06-26T09:33:59;5.40;;;1.92;;
60372;SDS011;46216;52.220;5.134;2023-06-26T09:36:27;3.83;;;1.75;;
60372;SDS011;46216;52.220;5.134;2023-06-26T09:38:54;4.90;;;1.90;;
60372;SDS011;46216;52.220;5.134;2023-06-26T09:41:20;3.40;;;1.70;;
60372;SDS011;46216;52.220;5.134;2023-06-26T09:43:48;3.65;;;1.63;;
60372;SDS011;46216;52.220;5.134;2023-06-26T09:46:27;3.80;;;1.40;;
60372;SDS011;46216;52.220;5.134;2023-06-26T09:48:58;4.25;;;1.65;;
60372;SDS011;46216;52.220;5.134;2023-06-26T09:51:31;2.97;;;1.40;;
60372;SDS011;46216;52.220;5.134;2023-06-26T09:53:57;4.38;;;1.50;;
60372;SDS011;46216;52.220;5.134;2023-06-26T09:56:23;2.67;;;1.58;;
60372;SDS011;46216;52.220;5.134;2023-06-26T09:58:49;5.88;;;1.45;;
60372;SDS011;46216;52.220;5.134;2023-06-26T10:01:15;3.15;;;1.33;;
60372;SDS011;46216;52.220;5.134;2023-06-26T10:03:40;3.70;;;1.55;;
60372;SDS011;46216;52.220;5.134;2023-06-26T10:06:06;4.35;;;1.27;;
60372;SDS011;46216;52.220;5.134;2023-06-26T10:08:34;5.78;;;1.70;;
60372;SDS011;46216;52.220;5.134;2023-06-26T10:11:02;4.95;;;1.60;;
60372;SDS011;46216;52.220;5.134;2023-06-26T10:13:28;3.10;;;1.20;;
60372;SDS011;46216;52.220;5.134;2023-06-26T10:15:59;2.58;;;1.38;;
60372;SDS011;46216;52.220;5.134;2023-06-26T10:18:26;2.10;;;1.30;;
60372;SDS011;46216;52.220;5.134;2023-06-26T10:20:53;4.65;;;1.50;;
60372;SDS011;46216;52.220;5.134;2023-06-26T10:23:21;2.65;;;1.30;;
60372;SDS011;46216;52.220;5.134;2023-06-26T10:25:50;5.97;;;1.70;;
60372;SDS011;46216;52.220;5.134;2023-06-26T10:28:17;2.92;;;1.50;;
60372;SDS011;46216;52.220;5.134;2023-06-26T10:30:45;3.15;;;1.60;;
60372;SDS011;46216;52.220;5.134;2023-06-26T10:33:12;4.57;;;1.70;;
60372;SDS011;46216;52.220;5.134;2023-06-26T10:35:42;4.55;;;2.22;;
60372;SDS011;46216;52.220;5.134;2023-06-26T10:38:09;11.13;;;1.98;;
60372;SDS011;46216;52.220;5.134;2023-06-26T10:40:46;5.80;;;1.80;;
60372;SDS011;46216;52.220;5.134;2023-06-26T10:43:16;3.75;;;1.45;;
60372;SDS011;46216;52.220;5.134;2023-06-26T10:45:47;5.43;;;1.65;;
60372;SDS011;46216;52.220;5.134;2023-06-26T10:48:17;4.32;;;1.60;;
60372;SDS011;46216;52.220;5.134;2023-06-26T10:50:43;5.45;;;1.50;;
60372;SDS011;46216;52.220;5.134;2023-06-26T10:55:51;5.07;;;1.55;;
60372;SDS011;46216;52.220;5.134;2023-06-26T10:58:34;4.00;;;1.42;;
60372;SDS011;46216;52.220;5.134;2023-06-26T11:03:41;4.65;;;1.67;;
60372;SDS011;46216;52.220;5.134;2023-06-26T11:06:28;6.45;;;1.40;;
60372;SDS011;46216;52.220;5.134;2023-06-26T11:09:00;3.33;;;1.33;;
60372;SDS011;46216;52.220;5.134;2023-06-26T11:14:20;4.97;;;1.38;;
60372;SDS011;46216;52.220;5.134;2023-06-26T11:16:46;3.75;;;1.40;;
60372;SDS011;46216;52.220;5.134;2023-06-26T11:19:12;3.58;;;1.38;;
60372;SDS011;46216;52.220;5.134;2023-06-26T11:21:38;4.53;;;1.65;;
60372;SDS011;46216;52.220;5.134;2023-06-26T11:24:04;4.35;;;1.48;;
60372;SDS011;46216;52.220;5.134;2023-06-26T11:26:32;3.08;;;1.35;;
60372;SDS011;46216;52.220;5.134;2023-06-26T11:29:03;2.10;;;1.30;;
60372;SDS011;46216;52.220;5.134;2023-06-26T11:31:29;6.50;;;1.60;;
60372;SDS011;46216;52.220;5.134;2023-06-26T11:33:56;1.50;;;1.20;;
60372;SDS011;46216;52.220;5.134;2023-06-26T11:36:24;4.65;;;1.40;;
60372;SDS011;46216;52.220;5.134;2023-06-26T11:38:53;5.97;;;1.10;;
60372;SDS011;46216;52.220;5.134;2023-06-26T11:41:20;3.75;;;1.45;;
60372;SDS011;46216;52.220;5.134;2023-06-26T11:43:46;4.60;;;1.20;;
60372;SDS011;46216;52.220;5.134;2023-06-26T11:46:11;3.33;;;1.20;;
60372;SDS011;46216;52.220;5.134;2023-06-26T11:48:37;2.63;;;1.20;;
60372;SDS011;46216;52.220;5.134;2023-06-26T11:51:04;3.63;;;1.48;;
60372;SDS011;46216;52.220;5.134;2023-06-26T11:53:30;3.17;;;1.15;;
60372;SDS011;46216;52.220;5.134;2023-06-26T11:55:55;3.15;;;1.10;;
60372;SDS011;46216;52.220;5.134;2023-06-26T11:58:22;7.07;;;1.20;;
60372;SDS011;46216;52.220;5.134;2023-06-26T12:00:47;2.30;;;1.00;;
60372;SDS011;46216;52.220;5.134;2023-06-26T12:03:13;2.05;;;1.10;;
60372;SDS011;46216;52.220;5.134;2023-06-26T12:05:39;3.17;;;1.10;;
60372;SDS011;46216;52.220;5.134;2023-06-26T12:08:05;6.10;;;1.65;;
60372;SDS011;46216;52.220;5.134;2023-06-26T12:10:32;2.55;;;1.00;;
60372;SDS011;46216;52.220;5.134;2023-06-26T12:12:58;3.80;;;1.05;;
60372;SDS011;46216;52.220;5.134;2023-06-26T12:15:26;3.22;;;1.23;;
60372;SDS011;46216;52.220;5.134;2023-06-26T12:17:53;3.42;;;1.25;;
60372;SDS011;46216;52.220;5.134;2023-06-26T12:20:19;2.85;;;1.00;;
60372;SDS011;46216;52.220;5.134;2023-06-26T12:22:46;2.92;;;1.10;;
60372;SDS011;46216;52.220;5.134;2023-06-26T12:25:12;3.30;;;1.35;;
60372;SDS011;46216;52.220;5.134;2023-06-26T12:27:38;4.85;;;1.40;;
60372;SDS011;46216;52.220;5.134;2023-06-26T12:30:03;3.00;;;1.40;;
60372;SDS011;46216;52.220;5.134;2023-06-26T12:32:30;3.30;;;1.15;;
60372;SDS011;46216;52.220;5.134;2023-06-26T12:34:56;2.50;;;1.38;;
60372;SDS011;46216;52.220;5.134;2023-06-26T12:37:22;5.72;;;1.30;;
60372;SDS011;46216;52.220;5.134;2023-06-26T12:39:54;4.55;;;1.20;;
60372;SDS011;46216;52.220;5.134;2023-06-26T12:42:23;2.38;;;1.10;;
60372;SDS011;46216;52.220;5.134;2023-06-26T12:44:50;2.45;;;1.27;;
60372;SDS011;46216;52.220;5.134;2023-06-26T12:47:16;4.63;;;1.30;;
60372;SDS011;46216;52.220;5.134;2023-06-26T12:49:44;5.75;;;1.50;;
60372;SDS011;46216;52.220;5.134;2023-06-26T12:52:12;2.95;;;1.23;;
60372;SDS011;46216;52.220;5.134;2023-06-26T12:54:39;5.40;;;1.50;;
60372;SDS011;46216;52.220;5.134;2023-06-26T12:57:06;3.40;;;1.48;;
60372;SDS011;46216;52.220;5.134;2023-06-26T12:59:33;4.43;;;1.40;;
60372;SDS011;46216;52.220;5.134;2023-06-26T13:01:59;3.42;;;1.40;;
60372;SDS011;46216;52.220;5.134;2023-06-26T13:04:25;5.30;;;1.63;;
60372;SDS011;46216;52.220;5.134;2023-06-26T13:06:51;4.43;;;1.40;;
60372;SDS011;46216;52.220;5.134;2023-06-26T13:09:19;1.90;;;1.23;;
60372;SDS011;46216;52.220;5.134;2023-06-26T13:11:45;2.22;;;1.30;;
60372;SDS011;46216;52.220;5.134;2023-06-26T13:14:10;4.13;;;1.67;;
60372;SDS011;46216;52.220;5.134;2023-06-26T13:16:36;3.95;;;1.40;;
60372;SDS011;46216;52.220;5.134;2023-06-26T13:19:01;3.13;;;1.10;;
60372;SDS011;46216;52.220;5.134;2023-06-26T13:21:27;3.67;;;1.40;;
60372;SDS011;46216;52.220;5.134;2023-06-26T13:23:54;2.75;;;1.30;;
60372;SDS011;46216;52.220;5.134;2023-06-26T13:26:20;3.90;;;1.58;;
60372;SDS011;46216;52.220;5.134;2023-06-26T13:28:47;2.42;;;1.20;;
60372;SDS011;46216;52.220;5.134;2023-06-26T13:31:13;1.88;;;1.10;;
60372;SDS011;46216;52.220;5.134;2023-06-26T13:33:39;3.63;;;1.30;;
60372;SDS011;46216;52.220;5.134;2023-06-26T13:36:05;2.60;;;1.10;;
60372;SDS011;46216;52.220;5.134;2023-06-26T13:38:32;2.15;;;1.20;;
60372;SDS011;46216;52.220;5.134;2023-06-26T13:40:58;2.03;;;0.90;;
60372;SDS011;46216;52.220;5.134;2023-06-26T13:43:26;2.67;;;1.25;;
60372;SDS011;46216;52.220;5.134;2023-06-26T13:45:51;5.38;;;1.42;;
60372;SDS011;46216;52.220;5.134;2023-06-26T13:48:17;3.03;;;1.27;;
60372;SDS011;46216;52.220;5.134;2023-06-26T13:50:43;3.75;;;1.10;;
60372;SDS011;46216;52.220;5.134;2023-06-26T13:53:08;2.85;;;1.20;;
60372;SDS011;46216;52.220;5.134;2023-06-26T13:55:34;2.65;;;1.25;;
60372;SDS011;46216;52.220;5.134;2023-06-26T13:58:00;2.85;;;1.40;;
60372;SDS011;46216;52.220;5.134;2023-06-26T14:00:29;2.72;;;1.15;;
60372;SDS011;46216;52.220;5.134;2023-06-26T14:02:54;3.15;;;1.33;;
60372;SDS011;46216;52.220;5.134;2023-06-26T14:05:21;3.00;;;1.08;;
60372;SDS011;46216;52.220;5.134;2023-06-26T14:07:47;3.17;;;1.35;;
60372;SDS011;46216;52.220;5.134;2023-06-26T14:10:12;5.03;;;1.40;;
60372;SDS011;46216;52.220;5.134;2023-06-26T14:12:38;2.67;;;1.25;;
60372;SDS011;46216;52.220;5.134;2023-06-26T14:15:05;5.55;;;1.45;;
60372;SDS011;46216;52.220;5.134;2023-06-26T14:17:30;5.60;;;1.50;;
60372;SDS011;46216;52.220;5.134;2023-06-26T14:19:56;3.05;;;1.20;;
60372;SDS011;46216;52.220;5.134;2023-06-26T14:22:21;4.40;;;1.30;;
60372;SDS011;46216;52.220;5.134;2023-06-26T14:24:48;2.50;;;1.10;;
60372;SDS011;46216;52.220;5.134;2023-06-26T14:27:14;2.97;;;0.98;;
60372;SDS011;46216;52.220;5.134;2023-06-26T14:29:39;3.08;;;1.40;;
60372;SDS011;46216;52.220;5.134;2023-06-26T14:32:05;3.20;;;1.20;;
60372;SDS011;46216;52.220;5.134;2023-06-26T14:34:31;2.80;;;1.40;;
60372;SDS011;46216;52.220;5.134;2023-06-26T14:36:57;3.20;;;1.60;;
60372;SDS011;46216;52.220;5.134;2023-06-26T14:39:22;5.88;;;1.35;;
60372;SDS011;46216;52.220;5.134;2023-06-26T14:41:47;3.35;;;1.67;;
60372;SDS011;46216;52.220;5.134;2023-06-26T14:44:13;4.75;;;1.35;;
60372;SDS011;46216;52.220;5.134;2023-06-26T14:46:41;2.60;;;1.30;;
60372;SDS011;46216;52.220;5.134;2023-06-26T14:49:07;3.72;;;1.48;;
60372;SDS011;46216;52.220;5.134;2023-06-26T14:51:33;2.05;;;1.00;;
60372;SDS011;46216;52.220;5.134;2023-06-26T14:53:58;4.70;;;1.27;;
60372;SDS011;46216;52.220;5.134;2023-06-26T14:56:24;2.15;;;1.20;;
60372;SDS011;46216;52.220;5.134;2023-06-26T14:58:50;4.18;;;1.55;;
60372;SDS011;46216;52.220;5.134;2023-06-26T15:01:17;5.63;;;1.60;;